Bookmark and Share
Track history (hours):
 

Robijn

Last reported at 2014-Apr-16 14:13 UTC. Time now 2014-Apr-24 20:03 UTC.
Position N 55°60' E 016°33'.
Warning: this ship's position is 8 days out of date.

Length 90 m; draft 3.7 m.

Type: Cargo ship. MMSI: 245909000.

NotesDate/timePositionNaut miles runAvg speedWind from/ knotsBaromVisibWave heightAir tempDewpointWater temp
2014-Apr-16 14:13N 55°60' E 016°33'811.5
2014-Apr-16 13:33N 55°56' E 016°21'1211.6
2014-Apr-16 12:33N 55°51' E 016°03'1311.5
2014-Apr-16 11:25N 55°44' E 015°43'1011.5
2014-Apr-16 10:30N 55°38' E 015°27'1111.4
2014-Apr-16 09:34N 55°33' E 015°11'1111.4
2014-Apr-16 08:34N 55°27' E 014°54'1111.4
2014-Apr-16 07:34N 55°21' E 014°37'1211.6
2014-Apr-16 06:33N 55°13' E 014°22'1111.2
2014-Apr-16 05:33N 55°11' E 014°02'1111.0
2014-Apr-16 04:34N 55°12' E 013°43'1111.3
2014-Apr-16 03:33N 55°13' E 013°23'1111.3
2014-Apr-16 02:34N 55°14' E 013°04'1111.2
2014-Apr-16 01:33N 55°17' E 012°45'9 8.8
2014-Apr-16 00:33N 55°25' E 012°40'1110.9
2014-Apr-15 23:34N 55°36' E 012°42'1111.0
2014-Apr-15 22:33N 55°47' E 012°41'1111.2
2014-Apr-15 21:33N 55°58' E 012°38'1010.0
2014-Apr-15 20:33N 56°07' E 012°30'1010.2
2014-Apr-15 19:34N 56°09' E 012°12'  
2014-Apr-12 05:31N 56°06' E 011°05'2410.4
2014-Apr-12 03:15N 56°09' E 011°47'710.3
2014-Apr-12 02:33N 56°10' E 011°60'1010.0
2014-Apr-12 01:33N 56°11' E 012°18'9 9.4
2014-Apr-12 00:33N 56°07' E 012°33'9 9.1
2014-Apr-11 23:33N 55°59' E 012°42'10 9.6
2014-Apr-11 22:34N 55°50' E 012°43'1010.3
2014-Apr-11 21:33N 55°39' E 012°42'10 9.7
2014-Apr-11 20:33N 55°30' E 012°43'9 9.3
2014-Apr-11 19:33N 55°21' E 012°42'9 8.5
2014-Apr-11 18:33N 55°16' E 012°54'9 9.4
2014-Apr-11 17:33N 55°16' E 013°11'10 9.5
2014-Apr-11 16:33N 55°15' E 013°27'10 9.8
2014-Apr-11 15:33N 55°15' E 013°45'10 9.7
2014-Apr-11 14:32N 55°14' E 014°02'9 9.0
2014-Apr-11 13:33N 55°15' E 014°17'9 9.3
2014-Apr-11 12:33N 55°22' E 014°29'9 8.9
2014-Apr-11 11:33N 55°27' E 014°41'9 8.6
2014-Apr-11 10:33N 55°30' E 014°55'9 9.1
2014-Apr-11 09:32N 55°33' E 015°12'9 9.1
2014-Apr-11 08:33N 55°35' E 015°27'11 9.2
2014-Apr-11 07:20N 55°38' E 015°46'7 9.2
2014-Apr-11 06:33N 55°40' E 015°58'56 9.1
2014-Apr-11 00:26N 55°57' E 017°33'13 9.4
2014-Apr-10 23:06N 56°00' E 017°54'5 9.5
2014-Apr-10 22:33N 56°01' E 018°03'10 9.5
2014-Apr-10 21:32N 56°04' E 018°20'  
2014-Apr-07 08:30N 55°56' E 014°19'0 0.0
2014-Apr-06 15:24N 55°56' E 014°19'0 0.0
2014-Apr-06 14:30N 55°56' E 014°19'  

Dump ship's entire track history

sailing weather and tide predictions

Robijn — PBEJ — position and weather